sensor_id;sensor_type;location;lat;lon;timestamp;P1;durP1;ratioP1;P2;durP2;ratioP2
67941;SDS011;54731;42.600;23.476;2023-02-15T00:02:02;43.83;;;19.47;;
67941;SDS011;54731;42.600;23.476;2023-02-15T00:04:28;44.33;;;22.60;;
67941;SDS011;54731;42.600;23.476;2023-02-15T00:06:53;46.20;;;21.67;;
67941;SDS011;54731;42.600;23.476;2023-02-15T00:09:18;44.00;;;20.23;;
67941;SDS011;54731;42.600;23.476;2023-02-15T00:11:44;45.30;;;22.13;;
67941;SDS011;54731;42.600;23.476;2023-02-15T00:14:10;36.13;;;16.90;;
67941;SDS011;54731;42.600;23.476;2023-02-15T00:16:47;46.15;;;22.30;;
67941;SDS011;54731;42.600;23.476;2023-02-15T00:19:14;45.20;;;22.65;;
67941;SDS011;54731;42.600;23.476;2023-02-15T00:21:41;50.33;;;23.92;;
67941;SDS011;54731;42.600;23.476;2023-02-15T00:24:07;47.30;;;23.50;;
67941;SDS011;54731;42.600;23.476;2023-02-15T00:26:34;46.05;;;22.55;;
67941;SDS011;54731;42.600;23.476;2023-02-15T00:29:00;42.90;;;21.03;;
67941;SDS011;54731;42.600;23.476;2023-02-15T00:31:25;45.22;;;20.58;;
67941;SDS011;54731;42.600;23.476;2023-02-15T00:33:55;47.70;;;21.70;;
67941;SDS011;54731;42.600;23.476;2023-02-15T00:36:20;48.17;;;22.45;;
67941;SDS011;54731;42.600;23.476;2023-02-15T00:38:45;50.37;;;23.63;;
67941;SDS011;54731;42.600;23.476;2023-02-15T00:41:11;45.67;;;21.67;;
67941;SDS011;54731;42.600;23.476;2023-02-15T00:43:36;46.10;;;21.03;;
67941;SDS011;54731;42.600;23.476;2023-02-15T00:46:02;44.23;;;21.70;;
67941;SDS011;54731;42.600;23.476;2023-02-15T00:48:29;47.38;;;22.15;;
67941;SDS011;54731;42.600;23.476;2023-02-15T00:50:56;44.70;;;21.10;;
67941;SDS011;54731;42.600;23.476;2023-02-15T00:53:25;43.28;;;21.15;;
67941;SDS011;54731;42.600;23.476;2023-02-15T00:55:51;44.70;;;20.95;;
67941;SDS011;54731;42.600;23.476;2023-02-15T00:58:17;43.60;;;20.50;;
67941;SDS011;54731;42.600;23.476;2023-02-15T01:00:43;40.70;;;18.93;;
67941;SDS011;54731;42.600;23.476;2023-02-15T01:03:10;41.80;;;20.95;;
67941;SDS011;54731;42.600;23.476;2023-02-15T01:05:36;42.97;;;21.10;;
67941;SDS011;54731;42.600;23.476;2023-02-15T01:08:02;41.90;;;20.27;;
67941;SDS011;54731;42.600;23.476;2023-02-15T01:10:27;46.58;;;21.48;;
67941;SDS011;54731;42.600;23.476;2023-02-15T01:12:53;43.57;;;21.50;;
67941;SDS011;54731;42.600;23.476;2023-02-15T01:15:20;43.10;;;20.73;;
67941;SDS011;54731;42.600;23.476;2023-02-15T01:17:45;44.13;;;20.63;;
67941;SDS011;54731;42.600;23.476;2023-02-15T01:20:11;42.40;;;21.48;;
67941;SDS011;54731;42.600;23.476;2023-02-15T01:22:36;40.13;;;19.60;;
67941;SDS011;54731;42.600;23.476;2023-02-15T01:25:02;49.72;;;21.50;;
67941;SDS011;54731;42.600;23.476;2023-02-15T01:27:27;40.47;;;19.43;;
67941;SDS011;54731;42.600;23.476;2023-02-15T01:29:53;37.30;;;19.13;;
67941;SDS011;54731;42.600;23.476;2023-02-15T01:32:18;39.60;;;19.63;;
67941;SDS011;54731;42.600;23.476;2023-02-15T01:34:43;38.70;;;17.80;;
67941;SDS011;54731;42.600;23.476;2023-02-15T01:37:09;37.40;;;17.40;;
67941;SDS011;54731;42.600;23.476;2023-02-15T01:39:34;41.65;;;20.20;;
67941;SDS011;54731;42.600;23.476;2023-02-15T01:41:59;46.73;;;20.37;;
67941;SDS011;54731;42.600;23.476;2023-02-15T01:49:54;47.03;;;21.70;;
67941;SDS011;54731;42.600;23.476;2023-02-15T01:52:47;32.42;;;14.13;;
67941;SDS011;54731;42.600;23.476;2023-02-15T01:55:17;41.30;;;20.77;;
67941;SDS011;54731;42.600;23.476;2023-02-15T01:57:43;32.08;;;16.80;;
67941;SDS011;54731;42.600;23.476;2023-02-15T02:00:11;43.90;;;20.37;;
67941;SDS011;54731;42.600;23.476;2023-02-15T02:02:38;46.25;;;23.20;;
67941;SDS011;54731;42.600;23.476;2023-02-15T02:05:05;44.97;;;20.75;;
67941;SDS011;54731;42.600;23.476;2023-02-15T02:07:33;37.28;;;20.13;;
67941;SDS011;54731;42.600;23.476;2023-02-15T02:10:02;40.65;;;20.85;;
67941;SDS011;54731;42.600;23.476;2023-02-15T02:12:29;38.40;;;19.57;;
67941;SDS011;54731;42.600;23.476;2023-02-15T02:14:55;42.65;;;20.20;;
67941;SDS011;54731;42.600;23.476;2023-02-15T02:25:18;41.97;;;19.80;;
67941;SDS011;54731;42.600;23.476;2023-02-15T02:33:41;43.83;;;21.25;;
67941;SDS011;54731;42.600;23.476;2023-02-15T02:44:10;42.55;;;19.67;;
67941;SDS011;54731;42.600;23.476;2023-02-15T02:46:59;36.30;;;18.08;;
67941;SDS011;54731;42.600;23.476;2023-02-15T02:49:34;39.13;;;18.53;;
67941;SDS011;54731;42.600;23.476;2023-02-15T02:52:01;34.60;;;17.40;;
67941;SDS011;54731;42.600;23.476;2023-02-15T02:54:28;37.92;;;18.58;;
67941;SDS011;54731;42.600;23.476;2023-02-15T02:56:56;44.67;;;19.48;;
67941;SDS011;54731;42.600;23.476;2023-02-15T02:59:39;45.10;;;22.40;;
67941;SDS011;54731;42.600;23.476;2023-02-15T03:02:11;40.50;;;20.47;;
67941;SDS011;54731;42.600;23.476;2023-02-15T03:04:43;43.10;;;19.38;;
67941;SDS011;54731;42.600;23.476;2023-02-15T03:07:14;41.55;;;21.35;;
67941;SDS011;54731;42.600;23.476;2023-02-15T03:09:45;38.30;;;18.17;;
67941;SDS011;54731;42.600;23.476;2023-02-15T03:12:22;40.15;;;20.10;;
67941;SDS011;54731;42.600;23.476;2023-02-15T03:14:51;39.53;;;19.13;;
67941;SDS011;54731;42.600;23.476;2023-02-15T03:17:20;38.33;;;19.60;;
67941;SDS011;54731;42.600;23.476;2023-02-15T03:19:49;44.53;;;21.70;;
67941;SDS011;54731;42.600;23.476;2023-02-15T03:22:21;38.28;;;17.42;;
67941;SDS011;54731;42.600;23.476;2023-02-15T03:24:56;42.55;;;19.85;;
67941;SDS011;54731;42.600;23.476;2023-02-15T03:27:23;41.60;;;19.90;;
67941;SDS011;54731;42.600;23.476;2023-02-15T03:29:55;42.97;;;19.13;;
67941;SDS011;54731;42.600;23.476;2023-02-15T03:32:23;41.20;;;17.75;;
67941;SDS011;54731;42.600;23.476;2023-02-15T03:34:50;45.40;;;20.52;;
67941;SDS011;54731;42.600;23.476;2023-02-15T03:38:01;36.47;;;18.00;;
67941;SDS011;54731;42.600;23.476;2023-02-15T03:40:08;44.42;;;19.98;;
67941;SDS011;54731;42.600;23.476;2023-02-15T03:42:39;43.05;;;20.60;;
67941;SDS011;54731;42.600;23.476;2023-02-15T03:45:11;38.53;;;17.95;;
67941;SDS011;54731;42.600;23.476;2023-02-15T03:47:44;36.00;;;17.53;;
67941;SDS011;54731;42.600;23.476;2023-02-15T03:50:13;36.90;;;18.42;;
67941;SDS011;54731;42.600;23.476;2023-02-15T03:52:45;40.22;;;20.80;;
67941;SDS011;54731;42.600;23.476;2023-02-15T03:55:11;36.07;;;17.77;;
67941;SDS011;54731;42.600;23.476;2023-02-15T03:57:36;35.37;;;18.70;;
67941;SDS011;54731;42.600;23.476;2023-02-15T04:00:03;38.35;;;18.95;;
67941;SDS011;54731;42.600;23.476;2023-02-15T04:02:36;38.20;;;19.00;;
67941;SDS011;54731;42.600;23.476;2023-02-15T04:05:09;39.10;;;17.65;;
67941;SDS011;54731;42.600;23.476;2023-02-15T04:07:34;40.90;;;20.00;;
67941;SDS011;54731;42.600;23.476;2023-02-15T04:09:59;43.23;;;19.07;;
67941;SDS011;54731;42.600;23.476;2023-02-15T04:12:24;38.30;;;19.83;;
67941;SDS011;54731;42.600;23.476;2023-02-15T04:14:50;36.65;;;18.67;;
67941;SDS011;54731;42.600;23.476;2023-02-15T04:17:15;37.47;;;17.53;;
67941;SDS011;54731;42.600;23.476;2023-02-15T04:19:40;35.27;;;18.57;;
67941;SDS011;54731;42.600;23.476;2023-02-15T04:22:06;41.50;;;20.80;;
67941;SDS011;54731;42.600;23.476;2023-02-15T04:24:31;39.27;;;19.73;;
67941;SDS011;54731;42.600;23.476;2023-02-15T04:26:56;36.77;;;18.50;;
67941;SDS011;54731;42.600;23.476;2023-02-15T04:29:23;38.40;;;19.00;;
67941;SDS011;54731;42.600;23.476;2023-02-15T04:31:49;41.17;;;18.53;;
67941;SDS011;54731;42.600;23.476;2023-02-15T04:34:15;41.90;;;20.63;;
67941;SDS011;54731;42.600;23.476;2023-02-15T04:36:41;38.97;;;20.43;;
67941;SDS011;54731;42.600;23.476;2023-02-15T04:39:07;41.05;;;19.75;;
67941;SDS011;54731;42.600;23.476;2023-02-15T04:41:33;47.00;;;23.53;;
67941;SDS011;54731;42.600;23.476;2023-02-15T04:43:59;36.90;;;18.35;;
67941;SDS011;54731;42.600;23.476;2023-02-15T04:46:24;34.70;;;17.42;;
67941;SDS011;54731;42.600;23.476;2023-02-15T04:48:50;39.23;;;19.03;;
67941;SDS011;54731;42.600;23.476;2023-02-15T04:51:15;41.10;;;18.63;;
67941;SDS011;54731;42.600;23.476;2023-02-15T04:53:40;43.10;;;20.53;;
67941;SDS011;54731;42.600;23.476;2023-02-15T04:56:06;41.47;;;20.00;;
67941;SDS011;54731;42.600;23.476;2023-02-15T04:58:31;42.27;;;20.93;;
67941;SDS011;54731;42.600;23.476;2023-02-15T05:00:57;45.00;;;21.10;;
67941;SDS011;54731;42.600;23.476;2023-02-15T05:03:22;40.63;;;22.80;;
67941;SDS011;54731;42.600;23.476;2023-02-15T05:05:48;42.38;;;21.80;;
67941;SDS011;54731;42.600;23.476;2023-02-15T05:08:14;41.20;;;22.40;;
67941;SDS011;54731;42.600;23.476;2023-02-15T05:10:39;40.72;;;18.15;;
67941;SDS011;54731;42.600;23.476;2023-02-15T05:13:05;39.00;;;17.50;;
67941;SDS011;54731;42.600;23.476;2023-02-15T05:15:30;35.73;;;19.10;;
67941;SDS011;54731;42.600;23.476;2023-02-15T05:17:55;52.17;;;23.50;;
67941;SDS011;54731;42.600;23.476;2023-02-15T05:20:24;41.10;;;20.98;;
67941;SDS011;54731;42.600;23.476;2023-02-15T05:22:53;39.47;;;19.13;;
67941;SDS011;54731;42.600;23.476;2023-02-15T05:25:19;42.47;;;20.63;;
67941;SDS011;54731;42.600;23.476;2023-02-15T05:27:44;39.87;;;20.17;;
67941;SDS011;54731;42.600;23.476;2023-02-15T05:30:10;41.50;;;19.93;;
67941;SDS011;54731;42.600;23.476;2023-02-15T05:32:36;37.95;;;20.38;;
67941;SDS011;54731;42.600;23.476;2023-02-15T05:35:01;40.10;;;20.93;;
67941;SDS011;54731;42.600;23.476;2023-02-15T05:37:26;38.43;;;19.83;;
67941;SDS011;54731;42.600;23.476;2023-02-15T05:39:51;43.70;;;23.23;;
67941;SDS011;54731;42.600;23.476;2023-02-15T05:42:17;38.33;;;19.93;;
67941;SDS011;54731;42.600;23.476;2023-02-15T05:44:42;43.10;;;23.07;;
67941;SDS011;54731;42.600;23.476;2023-02-15T05:47:07;43.13;;;21.77;;
67941;SDS011;54731;42.600;23.476;2023-02-15T05:49:33;42.87;;;22.30;;
67941;SDS011;54731;42.600;23.476;2023-02-15T05:51:58;47.33;;;22.10;;
67941;SDS011;54731;42.600;23.476;2023-02-15T05:54:23;32.13;;;16.20;;
67941;SDS011;54731;42.600;23.476;2023-02-15T05:56:49;49.92;;;23.77;;
67941;SDS011;54731;42.600;23.476;2023-02-15T05:59:14;44.53;;;20.77;;
67941;SDS011;54731;42.600;23.476;2023-02-15T06:01:39;34.27;;;18.93;;
67941;SDS011;54731;42.600;23.476;2023-02-15T06:04:05;39.03;;;21.07;;
67941;SDS011;54731;42.600;23.476;2023-02-15T06:06:30;46.63;;;25.40;;
67941;SDS011;54731;42.600;23.476;2023-02-15T06:08:55;40.17;;;20.90;;
67941;SDS011;54731;42.600;23.476;2023-02-15T06:11:20;42.27;;;21.70;;
67941;SDS011;54731;42.600;23.476;2023-02-15T06:13:46;49.13;;;21.83;;
67941;SDS011;54731;42.600;23.476;2023-02-15T06:16:11;45.27;;;23.03;;
67941;SDS011;54731;42.600;23.476;2023-02-15T06:18:36;39.47;;;21.08;;
67941;SDS011;54731;42.600;23.476;2023-02-15T06:21:02;46.10;;;23.00;;
67941;SDS011;54731;42.600;23.476;2023-02-15T06:23:27;46.83;;;21.97;;
67941;SDS011;54731;42.600;23.476;2023-02-15T06:25:53;43.40;;;21.30;;
67941;SDS011;54731;42.600;23.476;2023-02-15T06:28:18;45.73;;;22.40;;
67941;SDS011;54731;42.600;23.476;2023-02-15T06:30:43;55.57;;;26.10;;
67941;SDS011;54731;42.600;23.476;2023-02-15T06:33:08;45.80;;;20.23;;
67941;SDS011;54731;42.600;23.476;2023-02-15T06:35:34;44.15;;;20.85;;
67941;SDS011;54731;42.600;23.476;2023-02-15T06:37:59;44.60;;;22.63;;
67941;SDS011;54731;42.600;23.476;2023-02-15T06:40:24;42.30;;;21.77;;
67941;SDS011;54731;42.600;23.476;2023-02-15T06:42:50;40.23;;;21.40;;
67941;SDS011;54731;42.600;23.476;2023-02-15T06:45:16;41.83;;;22.53;;
67941;SDS011;54731;42.600;23.476;2023-02-15T06:47:41;40.30;;;21.33;;
67941;SDS011;54731;42.600;23.476;2023-02-15T06:50:07;41.13;;;22.27;;
67941;SDS011;54731;42.600;23.476;2023-02-15T06:52:33;52.33;;;28.05;;
67941;SDS011;54731;42.600;23.476;2023-02-15T06:54:58;48.97;;;22.67;;
67941;SDS011;54731;42.600;23.476;2023-02-15T06:57:24;42.27;;;20.53;;
67941;SDS011;54731;42.600;23.476;2023-02-15T06:59:49;37.47;;;19.03;;
67941;SDS011;54731;42.600;23.476;2023-02-15T07:02:14;39.37;;;19.07;;
67941;SDS011;54731;42.600;23.476;2023-02-15T07:04:40;35.10;;;17.83;;
67941;SDS011;54731;42.600;23.476;2023-02-15T07:07:07;39.37;;;19.43;;
67941;SDS011;54731;42.600;23.476;2023-02-15T07:09:34;40.08;;;19.92;;
67941;SDS011;54731;42.600;23.476;2023-02-15T07:11:59;41.43;;;20.23;;
67941;SDS011;54731;42.600;23.476;2023-02-15T07:14:25;35.33;;;19.20;;
67941;SDS011;54731;42.600;23.476;2023-02-15T07:16:50;42.73;;;22.00;;
67941;SDS011;54731;42.600;23.476;2023-02-15T07:19:15;31.20;;;15.37;;
67941;SDS011;54731;42.600;23.476;2023-02-15T07:21:41;34.67;;;17.90;;
67941;SDS011;54731;42.600;23.476;2023-02-15T07:24:06;40.63;;;19.90;;
67941;SDS011;54731;42.600;23.476;2023-02-15T07:26:31;36.17;;;18.87;;
67941;SDS011;54731;42.600;23.476;2023-02-15T07:28:57;37.92;;;19.00;;
67941;SDS011;54731;42.600;23.476;2023-02-15T07:31:22;41.50;;;18.90;;
67941;SDS011;54731;42.600;23.476;2023-02-15T07:33:48;30.47;;;17.00;;
67941;SDS011;54731;42.600;23.476;2023-02-15T07:36:13;40.57;;;21.43;;
67941;SDS011;54731;42.600;23.476;2023-02-15T07:38:39;37.37;;;20.10;;
67941;SDS011;54731;42.600;23.476;2023-02-15T07:41:06;38.90;;;21.13;;
67941;SDS011;54731;42.600;23.476;2023-02-15T07:43:34;34.95;;;18.58;;
67941;SDS011;54731;42.600;23.476;2023-02-15T07:46:02;36.90;;;20.13;;
67941;SDS011;54731;42.600;23.476;2023-02-15T07:48:31;32.65;;;16.02;;
67941;SDS011;54731;42.600;23.476;2023-02-15T07:51:04;31.80;;;16.77;;
67941;SDS011;54731;42.600;23.476;2023-02-15T07:53:31;33.47;;;18.53;;
67941;SDS011;54731;42.600;23.476;2023-02-15T07:55:58;35.35;;;16.75;;
67941;SDS011;54731;42.600;23.476;2023-02-15T07:58:25;38.33;;;21.23;;
67941;SDS011;54731;42.600;23.476;2023-02-15T08:00:50;30.87;;;16.80;;
67941;SDS011;54731;42.600;23.476;2023-02-15T08:03:18;29.80;;;15.60;;
67941;SDS011;54731;42.600;23.476;2023-02-15T08:05:44;32.40;;;15.90;;
67941;SDS011;54731;42.600;23.476;2023-02-15T08:08:10;30.90;;;17.85;;
67941;SDS011;54731;42.600;23.476;2023-02-15T08:10:36;29.23;;;14.15;;
67941;SDS011;54731;42.600;23.476;2023-02-15T08:13:01;31.03;;;16.30;;
67941;SDS011;54731;42.600;23.476;2023-02-15T08:15:27;29.30;;;14.90;;
67941;SDS011;54731;42.600;23.476;2023-02-15T08:17:52;27.33;;;14.63;;
67941;SDS011;54731;42.600;23.476;2023-02-15T08:20:17;32.03;;;15.13;;
67941;SDS011;54731;42.600;23.476;2023-02-15T08:22:43;31.83;;;17.10;;
67941;SDS011;54731;42.600;23.476;2023-02-15T08:25:08;27.83;;;14.33;;
67941;SDS011;54731;42.600;23.476;2023-02-15T08:27:33;28.23;;;14.40;;
67941;SDS011;54731;42.600;23.476;2023-02-15T08:29:58;29.98;;;15.27;;
67941;SDS011;54731;42.600;23.476;2023-02-15T08:32:24;26.53;;;13.97;;
67941;SDS011;54731;42.600;23.476;2023-02-15T08:34:49;31.07;;;14.80;;
67941;SDS011;54731;42.600;23.476;2023-02-15T08:37:14;30.20;;;15.40;;
67941;SDS011;54731;42.600;23.476;2023-02-15T08:39:40;30.87;;;15.40;;
67941;SDS011;54731;42.600;23.476;2023-02-15T08:42:05;32.53;;;13.47;;
67941;SDS011;54731;42.600;23.476;2023-02-15T08:44:30;29.03;;;15.00;;
67941;SDS011;54731;42.600;23.476;2023-02-15T08:46:56;25.90;;;12.30;;
67941;SDS011;54731;42.600;23.476;2023-02-15T08:49:21;32.07;;;15.43;;
67941;SDS011;54731;42.600;23.476;2023-02-15T08:51:47;32.28;;;17.75;;
67941;SDS011;54731;42.600;23.476;2023-02-15T08:54:14;30.73;;;15.85;;
67941;SDS011;54731;42.600;23.476;2023-02-15T08:56:42;31.80;;;17.30;;
67941;SDS011;54731;42.600;23.476;2023-02-15T08:59:15;29.45;;;15.27;;
67941;SDS011;54731;42.600;23.476;2023-02-15T09:01:43;23.45;;;13.30;;
67941;SDS011;54731;42.600;23.476;2023-02-15T09:04:09;34.13;;;15.20;;
67941;SDS011;54731;42.600;23.476;2023-02-15T09:06:34;29.83;;;14.27;;
67941;SDS011;54731;42.600;23.476;2023-02-15T09:09:01;25.58;;;13.20;;
67941;SDS011;54731;42.600;23.476;2023-02-15T09:11:27;28.57;;;13.23;;
67941;SDS011;54731;42.600;23.476;2023-02-15T09:13:55;27.77;;;14.88;;
67941;SDS011;54731;42.600;23.476;2023-02-15T09:16:23;29.27;;;14.57;;
67941;SDS011;54731;42.600;23.476;2023-02-15T09:18:50;27.08;;;14.00;;
67941;SDS011;54731;42.600;23.476;2023-02-15T09:21:17;26.10;;;13.98;;
67941;SDS011;54731;42.600;23.476;2023-02-15T09:23:45;30.58;;;13.63;;
67941;SDS011;54731;42.600;23.476;2023-02-15T09:26:13;35.03;;;18.05;;
67941;SDS011;54731;42.600;23.476;2023-02-15T09:28:43;38.55;;;12.32;;
67941;SDS011;54731;42.600;23.476;2023-02-15T09:31:09;33.73;;;15.80;;
67941;SDS011;54731;42.600;23.476;2023-02-15T09:33:39;24.92;;;11.95;;
67941;SDS011;54731;42.600;23.476;2023-02-15T09:36:13;29.83;;;14.68;;
67941;SDS011;54731;42.600;23.476;2023-02-15T09:38:39;25.87;;;12.57;;
67941;SDS011;54731;42.600;23.476;2023-02-15T09:43:40;40.80;;;20.30;;
67941;SDS011;54731;42.600;23.476;2023-02-15T09:55:01;29.52;;;16.15;;
67941;SDS011;54731;42.600;23.476;2023-02-15T10:17:06;42.03;;;23.05;;
67941;SDS011;54731;42.600;23.476;2023-02-15T10:27:36;45.83;;;22.57;;
67941;SDS011;54731;42.600;23.476;2023-02-15T10:30:10;50.63;;;23.73;;
67941;SDS011;54731;42.600;23.476;2023-02-15T10:32:56;42.35;;;21.25;;
67941;SDS011;54731;42.600;23.476;2023-02-15T10:38:23;43.08;;;21.80;;
67941;SDS011;54731;42.600;23.476;2023-02-15T10:43:52;24.30;;;12.60;;
67941;SDS011;54731;42.600;23.476;2023-02-15T10:52:26;29.90;;;15.18;;
67941;SDS011;54731;42.600;23.476;2023-02-15T10:57:51;25.75;;;14.50;;
67941;SDS011;54731;42.600;23.476;2023-02-15T11:06:06;36.35;;;17.58;;
67941;SDS011;54731;42.600;23.476;2023-02-15T11:08:35;33.43;;;15.43;;
67941;SDS011;54731;42.600;23.476;2023-02-15T11:11:05;29.38;;;16.55;;
67941;SDS011;54731;42.600;23.476;2023-02-15T11:13:34;40.42;;;17.20;;
67941;SDS011;54731;42.600;23.476;2023-02-15T11:16:14;29.25;;;14.32;;
67941;SDS011;54731;42.600;23.476;2023-02-15T11:18:45;28.00;;;14.75;;
67941;SDS011;54731;42.600;23.476;2023-02-15T11:21:26;23.70;;;13.43;;
67941;SDS011;54731;42.600;23.476;2023-02-15T11:23:57;27.15;;;14.95;;
67941;SDS011;54731;42.600;23.476;2023-02-15T11:26:27;26.98;;;13.15;;
67941;SDS011;54731;42.600;23.476;2023-02-15T11:28:58;37.80;;;16.55;;
67941;SDS011;54731;42.600;23.476;2023-02-15T11:31:45;25.15;;;12.65;;
67941;SDS011;54731;42.600;23.476;2023-02-15T11:34:18;36.80;;;16.77;;
67941;SDS011;54731;42.600;23.476;2023-02-15T11:36:50;32.00;;;16.23;;
67941;SDS011;54731;42.600;23.476;2023-02-15T11:39:19;30.55;;;15.40;;
67941;SDS011;54731;42.600;23.476;2023-02-15T11:41:52;29.98;;;14.27;;
67941;SDS011;54731;42.600;23.476;2023-02-15T11:44:25;31.40;;;16.27;;
67941;SDS011;54731;42.600;23.476;2023-02-15T11:46:58;33.80;;;16.33;;
67941;SDS011;54731;42.600;23.476;2023-02-15T11:49:29;31.30;;;15.48;;
67941;SDS011;54731;42.600;23.476;2023-02-15T11:51:56;32.63;;;16.53;;
67941;SDS011;54731;42.600;23.476;2023-02-15T11:54:29;28.23;;;16.02;;
67941;SDS011;54731;42.600;23.476;2023-02-15T11:56:56;32.95;;;15.93;;
67941;SDS011;54731;42.600;23.476;2023-02-15T11:59:29;31.63;;;15.75;;
67941;SDS011;54731;42.600;23.476;2023-02-15T12:01:59;28.02;;;16.17;;
67941;SDS011;54731;42.600;23.476;2023-02-15T12:04:38;33.07;;;16.13;;
67941;SDS011;54731;42.600;23.476;2023-02-15T12:09:45;27.42;;;16.52;;
67941;SDS011;54731;42.600;23.476;2023-02-15T12:14:50;29.38;;;16.77;;
67941;SDS011;54731;42.600;23.476;2023-02-15T12:17:17;31.10;;;18.75;;
67941;SDS011;54731;42.600;23.476;2023-02-15T12:19:45;27.27;;;16.77;;
67941;SDS011;54731;42.600;23.476;2023-02-15T12:22:20;26.92;;;14.93;;
67941;SDS011;54731;42.600;23.476;2023-02-15T12:24:53;32.63;;;17.90;;
67941;SDS011;54731;42.600;23.476;2023-02-15T12:27:22;29.13;;;15.85;;
67941;SDS011;54731;42.600;23.476;2023-02-15T12:29:51;30.48;;;16.00;;
67941;SDS011;54731;42.600;23.476;2023-02-15T12:32:24;30.50;;;15.48;;
67941;SDS011;54731;42.600;23.476;2023-02-15T12:34:55;29.65;;;17.45;;
67941;SDS011;54731;42.600;23.476;2023-02-15T12:37:28;26.37;;;16.90;;
67941;SDS011;54731;42.600;23.476;2023-02-15T12:39:57;30.92;;;17.50;;
67941;SDS011;54731;42.600;23.476;2023-02-15T12:42:24;30.13;;;17.33;;
67941;SDS011;54731;42.600;23.476;2023-02-15T12:47:27;29.00;;;18.00;;
67941;SDS011;54731;42.600;23.476;2023-02-15T12:50:21;31.97;;;15.87;;
67941;SDS011;54731;42.600;23.476;2023-02-15T12:52:40;27.38;;;15.85;;
67941;SDS011;54731;42.600;23.476;2023-02-15T12:55:25;24.67;;;15.27;;
67941;SDS011;54731;42.600;23.476;2023-02-15T13:06:45;27.65;;;16.98;;
67941;SDS011;54731;42.600;23.476;2023-02-15T13:09:14;33.40;;;19.20;;
67941;SDS011;54731;42.600;23.476;2023-02-15T13:11:41;34.63;;;19.80;;
67941;SDS011;54731;42.600;23.476;2023-02-15T13:14:21;34.88;;;20.48;;
67941;SDS011;54731;42.600;23.476;2023-02-15T13:16:51;32.40;;;20.35;;
67941;SDS011;54731;42.600;23.476;2023-02-15T13:20:05;31.92;;;19.17;;
67941;SDS011;54731;42.600;23.476;2023-02-15T13:22:15;30.00;;;17.55;;
67941;SDS011;54731;42.600;23.476;2023-02-15T13:24:52;29.85;;;17.38;;
67941;SDS011;54731;42.600;23.476;2023-02-15T13:27:21;28.73;;;16.48;;
67941;SDS011;54731;42.600;23.476;2023-02-15T13:29:50;24.80;;;16.67;;
67941;SDS011;54731;42.600;23.476;2023-02-15T13:34:58;27.52;;;16.08;;
67941;SDS011;54731;42.600;23.476;2023-02-15T13:45:23;33.75;;;19.58;;
67941;SDS011;54731;42.600;23.476;2023-02-15T13:53:00;31.87;;;17.80;;
67941;SDS011;54731;42.600;23.476;2023-02-15T13:55:50;31.27;;;19.00;;
67941;SDS011;54731;42.600;23.476;2023-02-15T13:58:35;33.47;;;19.83;;
67941;SDS011;54731;42.600;23.476;2023-02-15T14:01:10;36.30;;;21.05;;
67941;SDS011;54731;42.600;23.476;2023-02-15T14:08:52;40.45;;;21.63;;
67941;SDS011;54731;42.600;23.476;2023-02-15T14:13:54;30.77;;;18.05;;
67941;SDS011;54731;42.600;23.476;2023-02-15T14:17:03;34.33;;;19.52;;
67941;SDS011;54731;42.600;23.476;2023-02-15T14:19:44;34.25;;;20.80;;
67941;SDS011;54731;42.600;23.476;2023-02-15T14:27:54;46.67;;;20.45;;
67941;SDS011;54731;42.600;23.476;2023-02-15T14:30:22;43.40;;;23.38;;
67941;SDS011;54731;42.600;23.476;2023-02-15T14:32:52;41.92;;;22.25;;
67941;SDS011;54731;42.600;23.476;2023-02-15T14:35:21;50.80;;;28.38;;
67941;SDS011;54731;42.600;23.476;2023-02-15T14:45:53;34.55;;;19.23;;
67941;SDS011;54731;42.600;23.476;2023-02-15T14:51:53;40.75;;;23.70;;
67941;SDS011;54731;42.600;23.476;2023-02-15T14:56:44;37.47;;;21.83;;
67941;SDS011;54731;42.600;23.476;2023-02-15T15:01:36;37.30;;;23.60;;
67941;SDS011;54731;42.600;23.476;2023-02-15T15:04:04;39.83;;;22.60;;
67941;SDS011;54731;42.600;23.476;2023-02-15T15:06:34;40.30;;;23.13;;
67941;SDS011;54731;42.600;23.476;2023-02-15T15:09:09;42.85;;;24.23;;
67941;SDS011;54731;42.600;23.476;2023-02-15T15:11:40;37.85;;;21.85;;
67941;SDS011;54731;42.600;23.476;2023-02-15T15:16:56;33.42;;;19.75;;
67941;SDS011;54731;42.600;23.476;2023-02-15T15:22:17;37.03;;;20.67;;
67941;SDS011;54731;42.600;23.476;2023-02-15T15:32:47;71.53;;;27.10;;
67941;SDS011;54731;42.600;23.476;2023-02-15T15:35:33;64.50;;;23.50;;
67941;SDS011;54731;42.600;23.476;2023-02-15T15:40:55;99.15;;;33.53;;
67941;SDS011;54731;42.600;23.476;2023-02-15T15:43:29;62.97;;;24.33;;
67941;SDS011;54731;42.600;23.476;2023-02-15T15:48:49;40.90;;;20.27;;
67941;SDS011;54731;42.600;23.476;2023-02-15T15:51:18;82.03;;;35.40;;
67941;SDS011;54731;42.600;23.476;2023-02-15T15:53:47;131.57;;;42.47;;
67941;SDS011;54731;42.600;23.476;2023-02-15T15:56:17;144.25;;;44.17;;
67941;SDS011;54731;42.600;23.476;2023-02-15T15:58:49;117.80;;;41.00;;
67941;SDS011;54731;42.600;23.476;2023-02-15T16:01:25;90.40;;;33.33;;
67941;SDS011;54731;42.600;23.476;2023-02-15T16:03:52;92.40;;;34.22;;
67941;SDS011;54731;42.600;23.476;2023-02-15T16:06:29;97.07;;;35.55;;
67941;SDS011;54731;42.600;23.476;2023-02-15T16:08:56;92.97;;;37.97;;
67941;SDS011;54731;42.600;23.476;2023-02-15T16:11:27;131.80;;;40.80;;
67941;SDS011;54731;42.600;23.476;2023-02-15T16:13:54;222.27;;;59.38;;
67941;SDS011;54731;42.600;23.476;2023-02-15T16:16:24;108.43;;;34.58;;
67941;SDS011;54731;42.600;23.476;2023-02-15T16:18:52;197.07;;;53.47;;
67941;SDS011;54731;42.600;23.476;2023-02-15T16:21:22;89.97;;;30.48;;
67941;SDS011;54731;42.600;23.476;2023-02-15T16:29:46;57.15;;;24.13;;
67941;SDS011;54731;42.600;23.476;2023-02-15T16:32:24;45.37;;;23.13;;
67941;SDS011;54731;42.600;23.476;2023-02-15T16:37:20;132.43;;;37.25;;
67941;SDS011;54731;42.600;23.476;2023-02-15T16:39:47;59.53;;;24.00;;
67941;SDS011;54731;42.600;23.476;2023-02-15T16:42:12;204.98;;;54.63;;
67941;SDS011;54731;42.600;23.476;2023-02-15T16:44:40;64.93;;;28.43;;
67941;SDS011;54731;42.600;23.476;2023-02-15T16:47:09;42.92;;;21.83;;
67941;SDS011;54731;42.600;23.476;2023-02-15T16:49:40;45.58;;;22.33;;
67941;SDS011;54731;42.600;23.476;2023-02-15T16:52:11;48.85;;;22.35;;
67941;SDS011;54731;42.600;23.476;2023-02-15T16:54:40;42.90;;;21.47;;
67941;SDS011;54731;42.600;23.476;2023-02-15T16:57:14;57.92;;;23.27;;
67941;SDS011;54731;42.600;23.476;2023-02-15T16:59:44;49.72;;;24.73;;
67941;SDS011;54731;42.600;23.476;2023-02-15T17:02:17;40.50;;;21.13;;
67941;SDS011;54731;42.600;23.476;2023-02-15T17:04:44;41.85;;;21.50;;
67941;SDS011;54731;42.600;23.476;2023-02-15T17:07:16;52.80;;;24.27;;
67941;SDS011;54731;42.600;23.476;2023-02-15T17:09:53;34.10;;;16.52;;
67941;SDS011;54731;42.600;23.476;2023-02-15T17:12:37;47.83;;;22.88;;
67941;SDS011;54731;42.600;23.476;2023-02-15T17:16:06;55.45;;;24.13;;